Piedra Clavada, Argentina
Current Conditions -  °F | °C
As of 9:00 PM on Thursday 27 Nov 2014 (Local Time) from SAVC Reporting Station
Clear Clear  
Wind Chill: 20°   Ceiling: Unl
Heat Index: 20°   Visibility: 6mi
Dew Point:   Wind: 14mph
Humidity: 33%   Direction: 320°NW
Pressure: 29.68"   Gusts: NA
Location:  43.64°S, 67.36°W
Report Text: SAVC 280000Z 32012KT CAVOK 20/03 Q1005
Loading
Personal Weather Stations






























Interactive Weather Map New forecast layout! Learn more

10-Day Weather Forecast

Advertisements
Track Severe Weather on mobile